Clarksville, New Hampshire
Current Conditions -  °F | °C
As of 9:00 AM on Monday 20 Oct 2014 (Local Time) from CYSC Reporting Station
Overcast Overcast  
Wind Chill: 30°   Ceiling: 3500
Heat Index: 36°   Visibility: 9mi
Dew Point: 27°   Wind: 7mph
Humidity: 70%   Direction: 270°W
Pressure: 29.96"   Gusts: NA
Location:  45.1081°N, 71.25°W
Report Text: CYSC 201300Z AUTO 27006KT 9SM OVC035 02/M03 A2996 RMK SLP154
Loading
Personal Weather Stations






























Interactive Weather Map
Tropical Storm Tracking
New forecast layout! Learn more

10-Day Weather Forecast

Advertisements
Track Severe Weather on mobile